createdAt,value
2019-03-22T00:00:11.803Z,0
2019-03-22T00:01:11.762Z,0
2019-03-22T00:02:11.802Z,0
2019-03-22T00:03:11.775Z,0
2019-03-22T00:04:11.787Z,0
2019-03-22T00:05:11.732Z,0
2019-03-22T00:06:11.750Z,0
2019-03-22T00:07:11.721Z,0
2019-03-22T00:08:11.725Z,0
2019-03-22T00:09:11.708Z,0
2019-03-22T00:10:11.644Z,0
2019-03-22T00:11:11.683Z,0
2019-03-22T00:12:13.809Z,0
2019-03-22T00:13:11.646Z,0
2019-03-22T00:14:11.393Z,0
2019-03-22T00:15:11.610Z,0
2019-03-22T00:16:11.602Z,0
2019-03-22T00:17:11.545Z,0
2019-03-22T00:18:11.588Z,0
2019-03-22T00:19:11.539Z,0
2019-03-22T00:20:11.560Z,0
2019-03-22T00:21:11.513Z,0
2019-03-22T00:22:11.558Z,0
2019-03-22T00:23:11.473Z,0
2019-03-22T00:24:11.484Z,0
2019-03-22T00:25:11.461Z,0
2019-03-22T00:26:11.510Z,0
2019-03-22T00:27:22.945Z,0
2019-03-22T00:28:11.427Z,0
2019-03-22T00:29:11.163Z,0
2019-03-22T00:30:11.379Z,0
2019-03-22T00:31:11.421Z,0
2019-03-22T00:32:11.381Z,0
2019-03-22T00:33:11.352Z,0
2019-03-22T00:34:11.373Z,0
2019-03-22T00:35:11.334Z,0
2019-03-22T00:36:11.349Z,0
2019-03-22T00:37:11.303Z,0
2019-03-22T00:38:11.317Z,0
2019-03-22T00:39:11.250Z,0
2019-03-22T00:40:11.050Z,0
2019-03-22T00:41:11.242Z,0
2019-03-22T00:42:11.265Z,0
2019-03-22T00:43:11.233Z,0
2019-03-22T00:44:11.221Z,0
2019-03-22T00:45:11.206Z,0
2019-03-22T00:46:11.165Z,0
2019-03-22T00:47:11.182Z,0
2019-03-22T00:48:11.160Z,0
2019-03-22T00:49:10.936Z,0
2019-03-22T00:50:11.102Z,0
2019-03-22T00:51:11.128Z,0
2019-03-22T00:52:11.127Z,0
2019-03-22T00:53:11.120Z,0
2019-03-22T00:54:11.049Z,0
2019-03-22T00:55:11.110Z,0
2019-03-22T00:56:11.053Z,0
2019-03-22T00:57:11.056Z,0
2019-03-22T00:58:10.998Z,0
2019-03-22T00:59:11.020Z,0
2019-03-22T01:00:11.073Z,0
2019-03-22T01:01:10.981Z,0
2019-03-22T01:02:10.962Z,0
2019-03-22T01:03:10.966Z,0
2019-03-22T01:04:10.946Z,0
2019-03-22T01:05:10.968Z,0
2019-03-22T01:06:10.890Z,0
2019-03-22T01:07:10.912Z,0
2019-03-22T01:08:10.858Z,0
2019-03-22T01:09:10.893Z,0
2019-03-22T01:10:10.842Z,0
2019-03-22T01:11:10.877Z,0
2019-03-22T01:12:10.840Z,0
2019-03-22T01:13:10.836Z,0
2019-03-22T01:14:10.772Z,0
2019-03-22T01:15:10.783Z,0
2019-03-22T01:16:10.782Z,0
2019-03-22T01:17:10.780Z,0
2019-03-22T01:18:10.780Z,0
2019-03-22T01:19:10.736Z,0
2019-03-22T01:20:10.733Z,0
2019-03-22T01:21:10.694Z,0
2019-03-22T01:22:10.726Z,0
2019-03-22T01:23:10.679Z,0
2019-03-22T01:24:10.675Z,0
2019-03-22T01:25:10.433Z,0
2019-03-22T01:26:10.624Z,0
2019-03-22T01:27:10.666Z,0
2019-03-22T01:28:10.641Z,0
2019-03-22T01:29:10.632Z,0
2019-03-22T01:30:10.570Z,0
2019-03-22T01:31:10.576Z,0
2019-03-22T01:32:10.600Z,0
2019-03-22T01:33:10.584Z,0
2019-03-22T01:34:10.582Z,0
2019-03-22T01:35:10.537Z,0
2019-03-22T01:36:10.516Z,0
2019-03-22T01:37:10.542Z,0
2019-03-22T01:38:10.490Z,0
2019-03-22T01:39:10.253Z,0
2019-03-22T01:40:10.445Z,0
2019-03-22T01:41:10.476Z,0
2019-03-22T01:42:10.447Z,0
2019-03-22T01:43:10.469Z,0
2019-03-22T01:44:10.174Z,0
2019-03-22T01:45:10.430Z,0
2019-03-22T01:46:10.381Z,0
2019-03-22T01:47:10.459Z,0
2019-03-22T01:48:10.381Z,0
2019-03-22T01:49:10.399Z,0
2019-03-22T01:50:10.336Z,0
2019-03-22T01:51:10.355Z,0
2019-03-22T01:52:10.337Z,0
2019-03-22T01:53:10.354Z,0
2019-03-22T01:54:10.032Z,0
2019-03-22T01:55:10.302Z,0
2019-03-22T01:56:10.253Z,0
2019-03-22T01:57:10.282Z,0
2019-03-22T01:58:10.230Z,0
2019-03-22T01:59:10.030Z,0
2019-03-22T02:00:10.230Z,0
2019-03-22T02:01:09.984Z,0
2019-03-22T02:02:10.181Z,0
2019-03-22T02:03:10.184Z,0
2019-03-22T02:04:09.705Z,0
2019-03-22T02:05:10.198Z,0
2019-03-22T02:06:10.184Z,0
2019-03-22T02:07:10.139Z,0
2019-03-22T02:08:10.140Z,0
2019-03-22T02:09:10.097Z,0
2019-03-22T02:10:10.150Z,0
2019-03-22T02:11:10.114Z,0
2019-03-22T02:12:10.139Z,0
2019-03-22T02:13:10.082Z,0
2019-03-22T02:14:10.092Z,0
2019-03-22T02:15:10.042Z,0
2019-03-22T02:16:10.048Z,0
2019-03-22T02:17:10.047Z,0
2019-03-22T02:18:09.995Z,0
2019-03-22T02:19:10.037Z,0
2019-03-22T02:20:10.003Z,0
2019-03-22T02:21:09.998Z,0
2019-03-22T02:22:09.999Z,0
2019-03-22T02:23:09.950Z,0
2019-03-22T02:24:09.959Z,0
2019-03-22T02:25:09.994Z,0
2019-03-22T02:26:09.995Z,0
2019-03-22T02:27:09.910Z,0
2019-03-22T02:28:13.622Z,0
2019-03-22T02:29:09.648Z,0
2019-03-22T02:30:10.307Z,0
2019-03-22T02:31:09.860Z,0
2019-03-22T02:32:09.883Z,0
2019-03-22T02:33:09.865Z,0
2019-03-22T02:34:09.875Z,0
2019-03-22T02:35:09.900Z,0
2019-03-22T02:36:09.828Z,0
2019-03-22T02:37:09.796Z,0
2019-03-22T02:38:09.778Z,0
2019-03-22T02:39:09.866Z,0
2019-03-22T02:40:10.088Z,0
2019-03-22T02:41:09.751Z,0
2019-03-22T02:42:09.780Z,0
2019-03-22T02:43:09.743Z,0
2019-03-22T02:44:09.826Z,0
2019-03-22T02:45:10.067Z,0
2019-03-22T02:46:09.730Z,0
2019-03-22T02:47:09.687Z,0
2019-03-22T02:48:09.707Z,0
2019-03-22T02:49:09.777Z,0
2019-03-22T02:50:25.390Z,0
2019-03-22T02:51:09.705Z,0
2019-03-22T02:52:09.656Z,0
2019-03-22T02:53:09.642Z,0
2019-03-22T02:54:09.612Z,0
2019-03-22T02:55:10.065Z,0
2019-03-22T02:56:10.302Z,0
2019-03-22T02:57:09.698Z,0
2019-03-22T02:58:24.349Z,0
2019-03-22T02:59:09.603Z,0
2019-03-22T03:00:09.772Z,0
2019-03-22T03:01:09.299Z,0
2019-03-22T03:02:09.277Z,0
2019-03-22T03:03:09.338Z,0
2019-03-22T03:04:09.506Z,0
2019-03-22T03:05:09.521Z,0
2019-03-22T03:06:09.450Z,0
2019-03-22T03:07:09.485Z,0
2019-03-22T03:08:09.511Z,0
2019-03-22T03:09:09.432Z,0
2019-03-22T03:10:09.420Z,0
2019-03-22T03:11:09.431Z,0
2019-03-22T03:12:09.422Z,0
2019-03-22T03:13:09.441Z,0
2019-03-22T03:14:09.127Z,0
2019-03-22T03:15:09.434Z,0
2019-03-22T03:16:09.115Z,0
2019-03-22T03:17:09.382Z,0
2019-03-22T03:18:09.418Z,0
2019-03-22T03:19:09.398Z,0
2019-03-22T03:20:09.341Z,0
2019-03-22T03:21:09.122Z,0
2019-03-22T03:22:09.313Z,0
2019-03-22T03:23:09.308Z,0
2019-03-22T03:24:09.386Z,0
2019-03-22T03:25:09.288Z,0
2019-03-22T03:26:09.300Z,0
2019-03-22T03:27:09.237Z,0
2019-03-22T03:28:09.240Z,0
2019-03-22T03:29:09.224Z,0
2019-03-22T03:30:09.291Z,0
2019-03-22T03:31:09.279Z,0
2019-03-22T03:32:09.254Z,0
2019-03-22T03:33:09.386Z,0
2019-03-22T03:34:09.232Z,0
2019-03-22T03:35:09.288Z,0
2019-03-22T03:36:09.159Z,0
2019-03-22T03:37:09.170Z,0
2019-03-22T03:38:09.119Z,0
2019-03-22T03:39:09.102Z,0
2019-03-22T03:40:09.178Z,0
2019-03-22T03:41:09.180Z,0
2019-03-22T03:42:09.121Z,0
2019-03-22T03:43:09.070Z,0
2019-03-22T03:44:09.074Z,0
2019-03-22T03:45:09.032Z,0
2019-03-22T03:46:09.069Z,0
2019-03-22T03:47:12.613Z,0
2019-03-22T03:48:09.129Z,0
2019-03-22T03:49:09.010Z,0
2019-03-22T03:50:09.052Z,0
2019-03-22T03:51:08.828Z,0
2019-03-22T03:52:08.748Z,0
2019-03-22T03:53:08.975Z,0
2019-03-22T03:54:09.036Z,0
2019-03-22T03:55:09.022Z,0
2019-03-22T03:56:08.942Z,0
2019-03-22T03:57:08.922Z,0
2019-03-22T03:58:08.961Z,0
2019-03-22T03:59:08.937Z,0
2019-03-22T04:00:08.888Z,0
2019-03-22T04:01:08.856Z,0
2019-03-22T04:02:08.906Z,0
2019-03-22T04:03:08.870Z,0
2019-03-22T04:04:08.882Z,0
2019-03-22T04:05:08.875Z,0
2019-03-22T04:06:08.898Z,0
2019-03-22T04:07:08.806Z,0
2019-03-22T04:08:08.834Z,0
2019-03-22T04:09:08.796Z,0
2019-03-22T04:10:08.879Z,0
2019-03-22T04:11:08.789Z,0
2019-03-22T04:12:08.787Z,0
2019-03-22T04:13:08.778Z,0
2019-03-22T04:14:08.723Z,0
2019-03-22T04:15:08.763Z,0
2019-03-22T04:16:08.794Z,0
2019-03-22T04:17:08.770Z,0
2019-03-22T04:18:08.720Z,0
2019-03-22T04:19:08.719Z,0
2019-03-22T04:20:08.688Z,0
2019-03-22T04:21:08.702Z,0
2019-03-22T04:22:08.657Z,0
2019-03-22T04:23:08.679Z,0
2019-03-22T04:24:08.644Z,0
2019-03-22T04:25:08.628Z,0
2019-03-22T04:26:08.672Z,0
2019-03-22T04:27:08.641Z,0
2019-03-22T04:28:08.610Z,0
2019-03-22T04:29:17.182Z,0
2019-03-22T04:30:08.613Z,0
2019-03-22T04:31:08.607Z,0
2019-03-22T04:32:08.572Z,0
2019-03-22T04:33:11.507Z,0
2019-03-22T04:34:08.511Z,0
2019-03-22T04:35:08.539Z,0
2019-03-22T04:36:08.487Z,0
2019-03-22T04:37:08.530Z,0
2019-03-22T04:38:08.482Z,0
2019-03-22T04:39:08.514Z,0
2019-03-22T04:40:08.472Z,0
2019-03-22T04:41:08.475Z,0
2019-03-22T04:42:08.421Z,0
2019-03-22T04:43:08.533Z,0
2019-03-22T04:44:08.484Z,0
2019-03-22T04:45:08.426Z,0
2019-03-22T04:46:08.424Z,0
2019-03-22T04:47:08.139Z,0
2019-03-22T04:48:08.393Z,0
2019-03-22T04:49:08.142Z,0
2019-03-22T04:50:08.339Z,0
2019-03-22T04:51:08.363Z,0
2019-03-22T04:52:08.311Z,0
2019-03-22T04:53:08.676Z,0
2019-03-22T04:54:08.300Z,0
2019-03-22T04:55:08.352Z,0
2019-03-22T04:56:08.360Z,0
2019-03-22T04:57:08.304Z,0
2019-03-22T04:58:08.253Z,0
2019-03-22T04:59:18.307Z,0
2019-03-22T05:00:08.262Z,0
2019-03-22T05:01:08.264Z,0
2019-03-22T05:02:08.224Z,0
2019-03-22T05:03:08.287Z,0
2019-03-22T05:04:08.610Z,0
2019-03-22T05:05:08.009Z,0
2019-03-22T05:06:08.200Z,0
2019-03-22T05:07:08.190Z,0
2019-03-22T05:08:08.148Z,0
2019-03-22T05:09:08.194Z,0
2019-03-22T05:10:08.134Z,0
2019-03-22T05:11:08.171Z,0
2019-03-22T05:12:07.909Z,0
2019-03-22T05:13:08.198Z,5
2019-03-22T05:14:08.084Z,5
2019-03-22T05:15:07.883Z,5
2019-03-22T05:16:08.095Z,5
2019-03-22T05:17:08.067Z,5
2019-03-22T05:18:08.041Z,5
2019-03-22T05:19:08.072Z,5
2019-03-22T05:20:08.057Z,5
2019-03-22T05:21:08.068Z,5
2019-03-22T05:22:08.016Z,5
2019-03-22T05:23:08.044Z,5
2019-03-22T05:24:07.982Z,5
2019-03-22T05:25:08.028Z,10
2019-03-22T05:26:07.961Z,10
2019-03-22T05:27:08.012Z,10
2019-03-22T05:28:07.966Z,10
2019-03-22T05:29:07.977Z,10
2019-03-22T05:30:07.928Z,10
2019-03-22T05:31:07.927Z,10
2019-03-22T05:32:07.939Z,10
2019-03-22T05:33:07.929Z,10
2019-03-22T05:34:07.944Z,10
2019-03-22T05:35:09.910Z,10
2019-03-22T05:36:07.889Z,10
2019-03-22T05:37:07.911Z,10
2019-03-22T05:38:07.898Z,15
2019-03-22T05:39:07.601Z,15
2019-03-22T05:40:07.843Z,15
2019-03-22T05:41:07.923Z,15
2019-03-22T05:42:07.803Z,15
2019-03-22T05:43:07.843Z,15
2019-03-22T05:44:07.552Z,15
2019-03-22T05:45:07.943Z,15
2019-03-22T05:46:07.759Z,20
2019-03-22T05:47:07.762Z,20
2019-03-22T05:48:07.770Z,20
2019-03-22T05:49:07.523Z,20
2019-03-22T05:50:07.866Z,20
2019-03-22T05:51:07.723Z,20
2019-03-22T05:52:07.750Z,20
2019-03-22T05:53:07.690Z,20
2019-03-22T05:54:07.233Z,20
2019-03-22T05:55:07.689Z,20
2019-03-22T05:56:07.722Z,20
2019-03-22T05:57:18.045Z,20
2019-03-22T05:58:07.690Z,20
2019-03-22T05:59:07.638Z,25
2019-03-22T06:00:07.648Z,25
2019-03-22T06:01:07.390Z,25
2019-03-22T06:02:07.674Z,25
2019-03-22T06:03:07.633Z,25
2019-03-22T06:04:07.619Z,30
2019-03-22T06:05:07.579Z,30
2019-03-22T06:06:07.670Z,30
2019-03-22T06:07:07.569Z,35
2019-03-22T06:08:07.580Z,35
2019-03-22T06:09:07.292Z,35
2019-03-22T06:10:07.581Z,35
2019-03-22T06:11:07.525Z,35
2019-03-22T06:12:07.568Z,35
2019-03-22T06:13:07.522Z,35
2019-03-22T06:14:07.292Z,35
2019-03-22T06:15:07.468Z,35
2019-03-22T06:16:07.523Z,35
2019-03-22T06:17:07.468Z,35
2019-03-22T06:18:07.503Z,35
2019-03-22T06:19:07.519Z,35
2019-03-22T06:20:07.569Z,35
2019-03-22T06:21:07.426Z,35
2019-03-22T06:22:07.410Z,35
2019-03-22T06:23:07.448Z,40
2019-03-22T06:24:07.449Z,35
2019-03-22T06:25:07.507Z,35
2019-03-22T06:26:07.185Z,35
2019-03-22T06:27:07.403Z,35
2019-03-22T06:28:07.383Z,35
2019-03-22T06:29:07.478Z,35
2019-03-22T06:30:07.477Z,35
2019-03-22T06:31:07.386Z,40
2019-03-22T06:32:07.337Z,40
2019-03-22T06:33:07.319Z,45
2019-03-22T06:34:07.357Z,45
2019-03-22T06:35:07.470Z,50
2019-03-22T06:36:07.298Z,55
2019-03-22T06:37:07.267Z,55
2019-03-22T06:38:07.265Z,55
2019-03-22T06:39:07.290Z,55
2019-03-22T06:40:07.455Z,55
2019-03-22T06:41:07.281Z,50
2019-03-22T06:42:10.064Z,55
2019-03-22T06:43:07.243Z,60
2019-03-22T06:44:07.230Z,55
2019-03-22T06:45:07.404Z,55
2019-03-22T06:46:07.238Z,60
2019-03-22T06:47:07.175Z,60
2019-03-22T06:48:07.189Z,60
2019-03-22T06:49:07.165Z,65
2019-03-22T06:50:07.293Z,65
2019-03-22T06:51:07.185Z,65
2019-03-22T06:52:07.144Z,70
2019-03-22T06:53:07.125Z,70
2019-03-22T06:54:07.106Z,65
2019-03-22T06:55:07.134Z,65
2019-03-22T06:56:07.107Z,60
2019-03-22T06:57:07.078Z,60
2019-03-22T06:58:07.111Z,60
2019-03-22T06:59:06.580Z,65
2019-03-22T07:00:16.210Z,65
2019-03-22T07:01:07.053Z,70
2019-03-22T07:02:07.075Z,70
2019-03-22T07:03:07.012Z,75
2019-03-22T07:04:07.042Z,70
2019-03-22T07:05:07.004Z,70
2019-03-22T07:06:07.053Z,70
2019-03-22T07:07:07.017Z,65
2019-03-22T07:08:06.996Z,65
2019-03-22T07:09:06.975Z,65
2019-03-22T07:10:06.951Z,70
2019-03-22T07:11:07.007Z,70
2019-03-22T07:12:06.968Z,75
2019-03-22T07:13:06.983Z,75
2019-03-22T07:14:06.936Z,75
2019-03-22T07:15:06.948Z,80
2019-03-22T07:16:06.907Z,80
2019-03-22T07:17:08.507Z,85
2019-03-22T07:18:06.873Z,90
2019-03-22T07:19:06.920Z,90
2019-03-22T07:20:06.891Z,90
2019-03-22T07:21:06.891Z,90
2019-03-22T07:22:06.839Z,85
2019-03-22T07:23:06.872Z,85
2019-03-22T07:24:06.848Z,85
2019-03-22T07:25:06.818Z,90
2019-03-22T07:26:06.801Z,100
2019-03-22T07:27:06.837Z,105
2019-03-22T07:28:06.814Z,110
2019-03-22T07:29:06.901Z,110
2019-03-22T07:30:17.838Z,105
2019-03-22T07:31:06.598Z,100
2019-03-22T07:32:06.755Z,100
2019-03-22T07:33:06.783Z,100
2019-03-22T07:34:06.786Z,105
2019-03-22T07:35:06.770Z,105
2019-03-22T07:36:06.740Z,105
2019-03-22T07:37:06.531Z,110
2019-03-22T07:38:06.710Z,115
2019-03-22T07:39:06.779Z,115
2019-03-22T07:40:06.723Z,115
2019-03-22T07:41:06.743Z,120
2019-03-22T07:42:06.712Z,125
2019-03-22T07:43:06.421Z,125
2019-03-22T07:44:06.659Z,125
2019-03-22T07:45:06.623Z,125
2019-03-22T07:46:06.670Z,125
2019-03-22T07:47:06.623Z,120
2019-03-22T07:48:06.635Z,120
2019-03-22T07:49:06.645Z,120
2019-03-22T07:50:06.589Z,120
2019-03-22T07:51:06.632Z,125
2019-03-22T07:52:06.592Z,125
2019-03-22T07:53:06.603Z,120
2019-03-22T07:54:08.466Z,120
2019-03-22T07:55:06.565Z,125
2019-03-22T07:56:06.560Z,130
2019-03-22T07:57:06.343Z,135
2019-03-22T07:58:06.564Z,145
2019-03-22T07:59:06.522Z,150
2019-03-22T08:00:06.526Z,155
2019-03-22T08:01:06.516Z,155
2019-03-22T08:02:06.535Z,155
2019-03-22T08:03:06.506Z,150
2019-03-22T08:04:06.517Z,145
2019-03-22T08:05:06.511Z,145
2019-03-22T08:06:06.507Z,145
2019-03-22T08:07:08.520Z,150
2019-03-22T08:08:06.460Z,155
2019-03-22T08:09:06.430Z,160
2019-03-22T08:10:07.021Z,160
2019-03-22T08:11:06.510Z,160
2019-03-22T08:12:06.425Z,155
2019-03-22T08:13:06.158Z,150
2019-03-22T08:14:06.524Z,145
2019-03-22T08:15:08.308Z,145
2019-03-22T08:16:07.266Z,150
2019-03-22T08:17:06.386Z,155
2019-03-22T08:18:06.618Z,160
2019-03-22T08:19:06.361Z,160
2019-03-22T08:20:07.014Z,160
2019-03-22T08:21:06.378Z,160
2019-03-22T08:22:06.412Z,155
2019-03-22T08:23:06.353Z,155
2019-03-22T08:24:06.395Z,155
2019-03-22T08:25:06.369Z,155
2019-03-22T08:26:06.381Z,155
2019-03-22T08:27:06.315Z,155
2019-03-22T08:28:06.326Z,150
2019-03-22T08:29:06.420Z,150
2019-03-22T08:30:06.359Z,155
2019-03-22T08:31:08.037Z,150
2019-03-22T08:32:06.288Z,145
2019-03-22T08:33:06.042Z,145
2019-03-22T08:34:06.342Z,150
2019-03-22T08:35:06.309Z,155
2019-03-22T08:36:06.119Z,160
2019-03-22T08:37:06.242Z,165
2019-03-22T08:38:06.307Z,165
2019-03-22T08:39:06.274Z,165
2019-03-22T08:40:06.308Z,165
2019-03-22T08:41:06.341Z,165
2019-03-22T08:42:06.157Z,165
2019-03-22T08:43:06.245Z,170
2019-03-22T08:44:07.804Z,170
2019-03-22T08:45:06.216Z,170
2019-03-22T08:46:06.202Z,175
2019-03-22T08:47:06.160Z,175
2019-03-22T08:48:06.215Z,175
2019-03-22T08:49:09.307Z,170
2019-03-22T08:50:06.178Z,170
2019-03-22T08:51:06.182Z,170
2019-03-22T08:52:06.282Z,170
2019-03-22T08:53:06.202Z,180
2019-03-22T08:54:05.870Z,175
2019-03-22T08:55:06.111Z,180
2019-03-22T08:56:06.193Z,185
2019-03-22T08:57:06.120Z,190
2019-03-22T08:58:06.200Z,195
2019-03-22T08:59:06.209Z,200
2019-03-22T09:00:06.214Z,200
2019-03-22T09:01:07.661Z,195
2019-03-22T09:02:08.244Z,190
2019-03-22T09:03:06.031Z,190
2019-03-22T09:04:06.109Z,185
2019-03-22T09:05:06.165Z,180
2019-03-22T09:06:07.826Z,180
2019-03-22T09:07:08.602Z,180
2019-03-22T09:08:06.154Z,180
2019-03-22T09:09:06.013Z,185
2019-03-22T09:10:06.156Z,185
2019-03-22T09:11:06.095Z,185
2019-03-22T09:12:05.791Z,185
2019-03-22T09:13:06.096Z,190
2019-03-22T09:14:06.136Z,190
2019-03-22T09:15:06.042Z,190
2019-03-22T09:16:06.005Z,190
2019-03-22T09:17:05.953Z,190
2019-03-22T09:18:05.941Z,195
2019-03-22T09:19:05.753Z,200
2019-03-22T09:20:05.924Z,210
2019-03-22T09:21:05.926Z,220
2019-03-22T09:22:08.728Z,225
2019-03-22T09:23:05.950Z,230
2019-03-22T09:24:05.678Z,230
2019-03-22T09:25:05.894Z,225
2019-03-22T09:26:05.939Z,220
2019-03-22T09:27:05.990Z,210
2019-03-22T09:28:05.940Z,205
2019-03-22T09:29:05.743Z,205
2019-03-22T09:30:05.811Z,205
2019-03-22T09:31:19.698Z,210
2019-03-22T09:32:05.927Z,210
2019-03-22T09:33:06.248Z,215
2019-03-22T09:34:06.029Z,205
2019-03-22T09:35:07.071Z,200
2019-03-22T09:36:05.899Z,200
2019-03-22T09:37:08.843Z,195
2019-03-22T09:38:17.603Z,195
2019-03-22T09:39:05.568Z,195
2019-03-22T09:40:08.266Z,195
2019-03-22T09:41:05.694Z,200
2019-03-22T09:42:05.492Z,200
2019-03-22T09:43:05.808Z,205
2019-03-22T09:44:05.565Z,205
2019-03-22T09:45:05.730Z,205
2019-03-22T09:46:05.744Z,205
2019-03-22T09:47:05.574Z,205
2019-03-22T09:48:08.611Z,210
2019-03-22T09:49:05.932Z,215
2019-03-22T09:50:05.791Z,210
2019-03-22T09:51:05.723Z,210
2019-03-22T09:52:05.728Z,210
2019-03-22T09:53:05.728Z,215
2019-03-22T09:54:05.502Z,215
2019-03-22T09:55:19.553Z,220
2019-03-22T09:56:05.662Z,220
2019-03-22T09:57:05.716Z,220
2019-03-22T09:58:05.743Z,225
2019-03-22T09:59:05.826Z,225
2019-03-22T10:00:05.782Z,230
2019-03-22T10:01:06.008Z,235
2019-03-22T10:02:05.374Z,235
2019-03-22T10:03:05.642Z,235
2019-03-22T10:04:05.711Z,235
2019-03-22T10:05:05.654Z,235
2019-03-22T10:06:05.918Z,240
2019-03-22T10:07:05.607Z,245
2019-03-22T10:08:05.844Z,245
2019-03-22T10:09:09.963Z,245
2019-03-22T10:10:05.593Z,235
2019-03-22T10:11:05.555Z,230
2019-03-22T10:12:05.626Z,220
2019-03-22T10:13:05.584Z,215
2019-03-22T10:14:05.575Z,215
2019-03-22T10:15:05.596Z,215
2019-03-22T10:16:05.534Z,210
2019-03-22T10:17:05.620Z,205
2019-03-22T10:18:05.605Z,200
2019-03-22T10:19:05.612Z,205
2019-03-22T10:20:05.263Z,215
2019-03-22T10:21:05.538Z,215
2019-03-22T10:22:05.716Z,215
2019-03-22T10:23:05.499Z,215
2019-03-22T10:24:05.503Z,215
2019-03-22T10:25:05.533Z,220
2019-03-22T10:26:05.455Z,220
2019-03-22T10:27:07.703Z,220
2019-03-22T10:28:05.492Z,220
2019-03-22T10:29:06.855Z,225
2019-03-22T10:30:05.555Z,225
2019-03-22T10:31:05.362Z,230
2019-03-22T10:32:05.475Z,230
2019-03-22T10:33:05.478Z,230
2019-03-22T10:34:05.474Z,230
2019-03-22T10:35:05.208Z,230
2019-03-22T10:36:05.566Z,230
2019-03-22T10:37:05.346Z,225
2019-03-22T10:38:33.993Z,235
2019-03-22T10:39:05.531Z,230
2019-03-22T10:40:05.368Z,235
2019-03-22T10:41:05.259Z,235
2019-03-22T10:42:05.414Z,240
2019-03-22T10:43:05.599Z,235
2019-03-22T10:44:05.438Z,235
2019-03-22T10:45:05.476Z,235
2019-03-22T10:46:07.804Z,240
2019-03-22T10:47:05.326Z,245
2019-03-22T10:48:04.995Z,245
2019-03-22T10:49:05.392Z,245
2019-03-22T10:50:05.440Z,240
2019-03-22T10:51:05.077Z,235
2019-03-22T10:52:09.428Z,240
2019-03-22T10:53:05.413Z,235
2019-03-22T10:54:05.335Z,240
2019-03-22T10:55:35.455Z,250
2019-03-22T10:56:05.305Z,255
2019-03-22T10:57:05.212Z,260
2019-03-22T10:58:19.685Z,270
2019-03-22T10:59:05.180Z,270
2019-03-22T11:00:05.133Z,270
2019-03-22T11:01:08.109Z,270
2019-03-22T11:02:14.732Z,275
2019-03-22T11:03:05.190Z,280
2019-03-22T11:05:07.074Z,295
2019-03-22T11:06:05.092Z,295
2019-03-22T11:07:05.099Z,295
2019-03-22T11:08:05.101Z,300
2019-03-22T11:09:05.121Z,300
2019-03-22T11:10:05.132Z,290
2019-03-22T11:11:05.072Z,275
2019-03-22T11:12:14.960Z,270
2019-03-22T11:13:05.218Z,265
2019-03-22T11:14:05.033Z,270
2019-03-22T11:15:05.072Z,270
2019-03-22T11:16:05.285Z,265
2019-03-22T11:17:05.059Z,270
2019-03-22T11:18:05.014Z,275
2019-03-22T11:19:05.063Z,275
2019-03-22T11:20:06.992Z,280
2019-03-22T11:21:14.444Z,290
2019-03-22T11:22:04.974Z,285
2019-03-22T11:23:04.748Z,290
2019-03-22T11:24:04.994Z,300
2019-03-22T11:25:04.989Z,305
2019-03-22T11:26:13.538Z,310
2019-03-22T11:27:04.964Z,310
2019-03-22T11:28:04.976Z,300
2019-03-22T11:29:04.942Z,295
2019-03-22T11:30:05.113Z,285
2019-03-22T11:31:14.108Z,285
2019-03-22T11:32:14.588Z,290
2019-03-22T11:33:04.927Z,300
2019-03-22T11:34:04.962Z,310
2019-03-22T11:35:05.102Z,320
2019-03-22T11:36:04.922Z,325
2019-03-22T11:37:04.921Z,335
2019-03-22T11:38:04.928Z,350
2019-03-22T11:39:04.644Z,365
2019-03-22T11:40:05.154Z,375
2019-03-22T11:41:04.905Z,375
2019-03-22T11:42:04.912Z,365
2019-03-22T11:43:14.979Z,360
2019-03-22T11:44:04.878Z,355
2019-03-22T11:45:05.044Z,355
2019-03-22T11:46:04.880Z,355
2019-03-22T11:47:04.840Z,355
2019-03-22T11:48:05.400Z,335
2019-03-22T11:49:04.849Z,330
2019-03-22T11:50:04.905Z,330
2019-03-22T11:51:04.812Z,325
2019-03-22T11:52:04.839Z,320
2019-03-22T11:53:04.834Z,310
2019-03-22T11:54:04.782Z,310
2019-03-22T11:55:04.787Z,305
2019-03-22T11:56:04.790Z,305
2019-03-22T11:57:04.811Z,305
2019-03-22T11:58:04.810Z,275
2019-03-22T11:59:04.765Z,275
2019-03-22T12:00:04.872Z,280
2019-03-22T12:01:04.744Z,285
2019-03-22T12:02:04.792Z,290
2019-03-22T12:03:04.749Z,290
2019-03-22T12:04:04.746Z,290
2019-03-22T12:05:04.773Z,295
2019-03-22T12:06:04.717Z,300
2019-03-22T12:07:04.769Z,300
2019-03-22T12:08:04.727Z,300
2019-03-22T12:09:04.753Z,305
2019-03-22T12:10:04.687Z,300
2019-03-22T12:11:04.705Z,300
2019-03-22T12:12:04.702Z,305
2019-03-22T12:13:04.730Z,300
2019-03-22T12:14:04.722Z,300
2019-03-22T12:15:04.677Z,305
2019-03-22T12:16:04.680Z,310
2019-03-22T12:17:05.969Z,310
2019-03-22T12:18:04.699Z,315
2019-03-22T12:19:04.653Z,315
2019-03-22T12:20:04.700Z,320
2019-03-22T12:21:06.119Z,335
2019-03-22T12:22:04.426Z,340
2019-03-22T12:23:04.608Z,340
2019-03-22T12:24:04.653Z,345
2019-03-22T12:25:04.615Z,355
2019-03-22T12:26:06.412Z,370
2019-03-22T12:27:04.626Z,380
2019-03-22T12:28:04.621Z,390
2019-03-22T12:29:04.590Z,405
2019-03-22T12:30:04.631Z,420
2019-03-22T12:31:04.589Z,435
2019-03-22T12:32:04.583Z,440
2019-03-22T12:33:04.585Z,445
2019-03-22T12:34:06.646Z,445
2019-03-22T12:35:04.576Z,440
2019-03-22T12:36:04.606Z,435
2019-03-22T12:37:04.564Z,420
2019-03-22T12:38:04.951Z,405
2019-03-22T12:39:04.527Z,390
2019-03-22T12:40:04.304Z,385
2019-03-22T12:41:04.535Z,370
2019-03-22T12:42:04.566Z,360
2019-03-22T12:43:06.134Z,345
2019-03-22T12:44:04.540Z,345
2019-03-22T12:45:04.808Z,345
2019-03-22T12:46:04.532Z,340
2019-03-22T12:47:04.529Z,340
2019-03-22T12:48:04.512Z,350
2019-03-22T12:49:04.532Z,365
2019-03-22T12:50:04.473Z,375
2019-03-22T12:51:04.507Z,395
2019-03-22T12:52:04.211Z,400
2019-03-22T12:53:04.508Z,395
2019-03-22T12:54:04.462Z,390
2019-03-22T12:55:04.489Z,385
2019-03-22T12:56:04.489Z,385
2019-03-22T12:57:04.447Z,375
2019-03-22T12:58:06.650Z,365
2019-03-22T12:59:04.467Z,355
2019-03-22T13:00:04.453Z,345
2019-03-22T13:01:04.429Z,340
2019-03-22T13:02:04.419Z,335
2019-03-22T13:03:04.450Z,335
2019-03-22T13:04:04.440Z,330
2019-03-22T13:05:04.457Z,330
2019-03-22T13:06:04.397Z,340
2019-03-22T13:07:04.430Z,345
2019-03-22T13:08:04.389Z,345
2019-03-22T13:09:04.437Z,345
2019-03-22T13:10:04.377Z,350
2019-03-22T13:11:03.988Z,355
2019-03-22T13:12:06.294Z,360
2019-03-22T13:13:04.405Z,360
2019-03-22T13:14:04.350Z,360
2019-03-22T13:15:06.217Z,360
2019-03-22T13:16:04.372Z,365
2019-03-22T13:17:04.382Z,365
2019-03-22T13:18:04.393Z,360
2019-03-22T13:19:04.346Z,365
2019-03-22T13:20:04.348Z,370
2019-03-22T13:21:04.363Z,365
2019-03-22T13:22:04.351Z,355
2019-03-22T13:23:04.345Z,350
2019-03-22T13:24:04.303Z,350
2019-03-22T13:25:04.346Z,355
2019-03-22T13:26:04.065Z,355
2019-03-22T13:27:04.350Z,355
2019-03-22T13:28:04.308Z,360
2019-03-22T13:29:04.333Z,365
2019-03-22T13:30:04.291Z,365
2019-03-22T13:31:04.053Z,360
2019-03-22T13:32:04.287Z,355
2019-03-22T13:33:04.299Z,350
2019-03-22T13:34:04.249Z,345
2019-03-22T13:35:04.284Z,340
2019-03-22T13:36:04.280Z,335
2019-03-22T13:37:04.290Z,330
2019-03-22T13:38:04.245Z,325
2019-03-22T13:39:04.266Z,320
2019-03-22T13:40:04.222Z,320
2019-03-22T13:41:04.255Z,325
2019-03-22T13:42:04.220Z,325
2019-03-22T13:43:04.278Z,325
2019-03-22T13:44:04.230Z,320
2019-03-22T13:45:04.235Z,305
2019-03-22T13:46:04.188Z,295
2019-03-22T13:47:04.225Z,305
2019-03-22T13:48:04.427Z,310
2019-03-22T13:49:03.937Z,305
2019-03-22T13:50:04.205Z,305
2019-03-22T13:51:04.198Z,305
2019-03-22T13:52:04.185Z,315
2019-03-22T13:53:04.208Z,320
2019-03-22T13:54:04.146Z,325
2019-03-22T13:55:04.181Z,325
2019-03-22T13:56:04.135Z,330
2019-03-22T13:57:04.304Z,330
2019-03-22T13:58:04.124Z,330
2019-03-22T13:59:04.167Z,325
2019-03-22T14:00:04.169Z,320
2019-03-22T14:01:04.150Z,320
2019-03-22T14:02:04.095Z,325
2019-03-22T14:03:12.630Z,330
2019-03-22T14:04:04.377Z,330
2019-03-22T14:05:04.121Z,325
2019-03-22T14:06:04.145Z,320
2019-03-22T14:07:04.083Z,315
2019-03-22T14:08:04.117Z,315
2019-03-22T14:09:04.059Z,315
2019-03-22T14:10:04.105Z,320
2019-03-22T14:11:03.878Z,320
2019-03-22T14:12:04.061Z,320
2019-03-22T14:13:04.078Z,320